Time;durP1;ratioP1;P1;durP2;ratioP2;P2;SDS_P1;SDS_P2;PMS_P1;PMS_P2;Temp;Humidity;BMP_temperature;BMP_pressure;BME280_temperature;BME280_humidity;BME280_pressure;Samples;Min_cycle;Max_cycle;Signal;HPM_P1;HPM_P2
2022/09/28 00:00:26;;;;;;;46.03;18.80;;;;;;;13.67;100.00;93690.44;5065803;28;20205;-73
2022/09/28 00:02:56;;;;;;;29.63;17.93;;;;;;;13.56;100.00;93687.06;5066911;28;20202;-72
2022/09/28 00:05:25;;;;;;;30.20;18.13;;;;;;;13.51;100.00;93685.22;5065758;28;20209;-73
2022/09/28 00:07:54;;;;;;;28.93;18.73;;;;;;;13.47;100.00;93681.56;5066481;28;20205;-73
2022/09/28 00:10:21;;;;;;;30.60;17.53;;;;;;;13.41;100.00;93680.00;5065608;28;20222;-73
2022/09/28 00:12:48;;;;;;;25.40;15.97;;;;;;;13.41;100.00;93684.41;5065643;28;20288;-74
2022/09/28 00:15:16;;;;;;;21.57;15.97;;;;;;;13.40;100.00;93681.03;5070030;28;20216;-73
2022/09/28 00:17:43;;;;;;;24.10;15.83;;;;;;;13.44;100.00;93678.69;5070350;28;20217;-73
2022/09/28 00:20:10;;;;;;;20.13;14.83;;;;;;;13.47;100.00;93678.97;5070214;28;20197;-73
2022/09/28 00:22:38;;;;;;;21.03;13.77;;;;;;;13.40;100.00;93672.41;5067702;28;20283;-72
2022/09/28 00:25:07;;;;;;;19.53;13.00;;;;;;;13.39;100.00;93674.22;5067373;28;20219;-72
2022/09/28 00:27:35;;;;;;;20.97;13.90;;;;;;;13.38;100.00;93666.66;5070492;28;20205;-73
2022/09/28 00:30:02;;;;;;;22.97;14.80;;;;;;;13.41;100.00;93660.94;5070808;28;20217;-73
2022/09/28 00:32:28;;;;;;;22.50;14.83;;;;;;;13.40;100.00;93664.56;5069829;28;20205;-73
2022/09/28 00:34:55;;;;;;;27.20;15.50;;;;;;;13.41;100.00;93671.38;5070625;28;20296;-72
2022/09/28 00:37:22;;;;;;;21.10;14.67;;;;;;;13.27;100.00;93665.88;5070172;28;20205;-72
2022/09/28 00:39:49;;;;;;;19.23;14.30;;;;;;;13.26;100.00;93671.34;5069499;28;20580;-72
2022/09/28 00:42:19;;;;;;;23.20;13.83;;;;;;;13.20;100.00;93667.16;5070087;28;20204;-72
2022/09/28 00:44:50;;;;;;;19.90;13.30;;;;;;;13.16;100.00;93659.03;5070271;28;20205;-72
2022/09/28 00:47:25;;;;;;;23.27;14.40;;;;;;;13.09;100.00;93663.75;5070251;28;20205;-72
2022/09/28 00:49:57;;;;;;;19.33;14.17;;;;;;;13.13;100.00;93670.00;5070467;28;20243;-72
2022/09/28 00:52:28;;;;;;;22.37;13.33;;;;;;;13.07;100.00;93663.97;5069371;28;20209;-73
2022/09/28 00:55:00;;;;;;;17.30;11.57;;;;;;;12.88;100.00;93670.69;5070245;28;20209;-73
2022/09/28 00:57:29;;;;;;;16.13;8.97;;;;;;;12.58;100.00;93664.59;5069871;28;20205;-73
2022/09/28 00:59:56;;;;;;;12.33;8.70;;;;;;;12.42;100.00;93666.31;5069890;28;20220;-73
2022/09/28 01:02:23;;;;;;;15.53;8.73;;;;;;;12.36;100.00;93662.91;5069334;28;20205;-74
2022/09/28 01:04:51;;;;;;;15.70;10.10;;;;;;;12.38;100.00;93665.28;5069624;28;20224;-72
2022/09/28 01:07:19;;;;;;;14.17;10.13;;;;;;;12.59;100.00;93677.34;5069242;28;20225;-72
2022/09/28 01:09:46;;;;;;;13.27;9.83;;;;;;;12.71;100.00;93675.31;5069652;28;20205;-73
2022/09/28 01:12:13;;;;;;;15.30;10.27;;;;;;;12.80;100.00;93673.00;5069255;28;20212;-72
2022/09/28 01:14:42;;;;;;;16.13;10.30;;;;;;;12.89;100.00;93658.44;5069283;28;20675;-72
2022/09/28 01:17:15;;;;;;;15.70;9.53;;;;;;;12.94;100.00;93671.50;5069692;28;20311;-72
2022/09/28 01:20:08;;;;;;;16.63;10.60;;;;;;;13.00;100.00;93675.69;5069645;28;20205;-73
2022/09/28 01:23:08;;;;;;;17.80;12.13;;;;;;;12.94;100.00;93676.72;5069745;28;20201;-72
2022/09/28 01:25:41;;;;;;;20.73;13.07;;;;;;;12.99;100.00;93669.69;5069633;28;20197;-72
2022/09/28 01:28:13;;;;;;;20.03;12.97;;;;;;;12.97;100.00;93673.59;5066240;28;20201;-72
2022/09/28 01:30:46;;;;;;;36.27;15.87;;;;;;;13.03;100.00;93677.78;5066800;28;20228;-73
2022/09/28 01:33:20;;;;;;;22.67;14.30;;;;;;;13.04;100.00;93676.75;5068634;28;20212;-72
2022/09/28 01:35:53;;;;;;;38.70;13.30;;;;;;;13.03;100.00;93668.13;5068734;28;20207;-72
2022/09/28 01:38:23;;;;;;;59.93;14.90;;;;;;;13.04;100.00;93668.94;5068122;28;20205;-73
2022/09/28 01:40:52;;;;;;;36.07;13.17;;;;;;;13.10;100.00;93667.16;5069393;28;20201;-72
2022/09/28 01:43:24;;;;;;;35.07;13.07;;;;;;;12.87;100.00;93676.19;5068423;28;20687;-72
2022/09/28 01:45:55;;;;;;;22.43;12.90;;;;;;;12.78;100.00;93677.69;5068711;28;20201;-72
2022/09/28 01:48:29;;;;;;;19.87;12.97;;;;;;;12.74;100.00;93681.84;5067821;28;20667;-72
2022/09/28 01:51:00;;;;;;;17.93;13.43;;;;;;;12.70;100.00;93673.75;5067982;28;20918;-72
2022/09/28 01:53:35;;;;;;;18.63;13.40;;;;;;;12.77;100.00;93686.56;5067713;28;20201;-73
2022/09/28 01:56:07;;;;;;;19.20;12.63;;;;;;;12.70;100.00;93683.41;5068876;28;20211;-74
2022/09/28 01:58:39;;;;;;;17.03;12.37;;;;;;;12.72;100.00;93686.53;5067864;28;20185;-73
2022/09/28 02:01:11;;;;;;;19.13;12.67;;;;;;;12.75;100.00;93688.63;5064644;28;20190;-73
2022/09/28 02:03:44;;;;;;;18.47;12.13;;;;;;;12.80;100.00;93681.63;5065287;28;20285;-73
2022/09/28 02:06:17;;;;;;;16.57;12.17;;;;;;;12.79;100.00;93680.03;5064395;28;20233;-73
2022/09/28 02:08:50;;;;;;;15.60;12.40;;;;;;;12.81;100.00;93692.84;5065555;28;20201;-73
2022/09/28 02:11:19;;;;;;;18.37;11.70;;;;;;;12.83;100.00;93685.53;5066640;28;20209;-74
2022/09/28 02:13:51;;;;;;;16.20;11.03;;;;;;;12.70;100.00;93681.56;5067615;28;20204;-74
2022/09/28 02:16:22;;;;;;;17.03;12.10;;;;;;;12.67;100.00;93684.69;5067790;28;20197;-74
2022/09/28 02:18:51;;;;;;;19.93;11.60;;;;;;;12.71;100.00;93692.78;5067795;28;20236;-73
2022/09/28 02:21:25;;;;;;;18.43;11.70;;;;;;;12.65;100.00;93691.19;5067710;28;20272;-74
2022/09/28 02:23:56;;;;;;;17.07;12.20;;;;;;;12.53;100.00;93699.22;5064122;28;20200;-74
2022/09/28 02:26:36;;;;;;;17.20;11.77;;;;;;;12.39;100.00;93677.25;5064081;28;20205;-73
2022/09/28 02:29:05;;;;;;;16.23;11.87;;;;;;;12.42;100.00;93687.16;5068451;28;20209;-72
2022/09/28 02:31:32;;;;;;;16.23;12.00;;;;;;;12.50;100.00;93684.88;5067358;28;20324;-72
2022/09/28 02:33:59;;;;;;;16.90;12.37;;;;;;;12.55;100.00;93686.72;5067886;28;20255;-73
2022/09/28 02:36:27;;;;;;;19.67;12.50;;;;;;;12.45;100.00;93687.44;5066968;28;20214;-73
2022/09/28 02:38:56;;;;;;;18.03;13.07;;;;;;;12.23;100.00;93684.22;5067649;28;20213;-74
2022/09/28 02:41:37;;;;;;;18.00;12.30;;;;;;;11.86;100.00;93668.59;5067794;28;20202;-73
2022/09/28 02:44:15;;;;;;;24.20;13.57;;;;;;;11.92;100.00;93688.41;5068840;28;20208;-74
2022/09/28 02:46:49;;;;;;;21.23;13.00;;;;;;;11.94;100.00;93668.16;5065868;28;20673;-73
2022/09/28 02:49:26;;;;;;;24.93;14.33;;;;;;;11.98;100.00;93694.44;5067526;28;20197;-73
2022/09/28 02:52:12;;;;;;;23.90;12.90;;;;;;;11.89;100.00;93670.69;5067000;28;20205;-72
2022/09/28 02:55:17;;;;;;;17.23;13.03;;;;;;;11.97;100.00;93679.09;5064670;28;20229;-73
2022/09/28 02:57:57;;;;;;;18.07;12.70;;;;;;;11.96;100.00;93693.91;5065819;28;20267;-73
2022/09/28 03:00:26;;;;;;;22.17;12.40;;;;;;;11.88;100.00;93689.97;5066494;28;20323;-73
2022/09/28 03:03:02;;;;;;;17.67;12.30;;;;;;;11.96;100.00;93701.72;5067393;28;20591;-73
2022/09/28 03:05:37;;;;;;;17.40;11.60;;;;;;;12.05;100.00;93697.63;5066477;28;20209;-74
2022/09/28 03:08:11;;;;;;;18.73;11.70;;;;;;;12.16;100.00;93698.47;5067942;28;20200;-73
2022/09/28 03:10:43;;;;;;;17.70;12.07;;;;;;;12.20;100.00;93702.94;5067124;28;20216;-73
2022/09/28 03:13:11;;;;;;;21.10;11.73;;;;;;;12.25;100.00;93702.97;5067169;28;20213;-73
2022/09/28 03:15:40;;;;;;;23.50;13.53;;;;;;;12.28;100.00;93712.88;5067486;28;20197;-72
2022/09/28 03:18:07;;;;;;;21.70;14.20;;;;;;;12.32;100.00;93713.19;5066197;28;20205;-74
2022/09/28 03:20:34;;;;;;;24.77;15.50;;;;;;;12.37;100.00;93724.41;5066531;28;20197;-73
2022/09/28 03:23:01;;;;;;;20.53;13.80;;;;;;;12.38;100.00;93725.97;5067824;28;20209;-72
2022/09/28 03:25:28;;;;;;;21.10;13.03;;;;;;;12.36;100.00;93733.25;5067421;28;20232;-73
2022/09/28 03:27:55;;;;;;;18.60;12.27;;;;;;;12.36;100.00;93728.03;5067297;28;20205;-73
2022/09/28 03:30:22;;;;;;;14.17;10.70;;;;;;;12.36;100.00;93729.88;5066849;28;20202;-73
2022/09/28 03:32:59;;;;;;;18.00;12.07;;;;;;;12.41;100.00;93727.28;5067517;28;20201;-73
2022/09/28 03:35:26;;;;;;;19.53;12.30;;;;;;;12.43;100.00;93727.84;5066579;28;20328;-73
2022/09/28 03:37:55;;;;;;;19.07;11.60;;;;;;;12.44;100.00;93739.81;5067104;28;20201;-72
2022/09/28 03:40:22;;;;;;;16.27;10.43;;;;;;;12.47;100.00;93721.06;5065873;28;20205;-72
2022/09/28 03:42:49;;;;;;;18.20;10.50;;;;;;;12.49;100.00;93724.22;5065688;28;20228;-72
2022/09/28 03:45:16;;;;;;;14.20;9.40;;;;;;;12.50;100.00;93723.97;5064871;28;20202;-72
2022/09/28 03:47:46;;;;;;;12.87;9.47;;;;;;;12.55;100.00;93725.03;5066868;28;20212;-72
2022/09/28 03:50:15;;;;;;;14.87;10.30;;;;;;;12.61;100.00;93722.19;5068233;28;20668;-73
2022/09/28 03:52:41;;;;;;;15.60;9.63;;;;;;;12.66;100.00;93719.63;5068297;28;20221;-74
2022/09/28 03:55:09;;;;;;;18.77;10.03;;;;;;;12.75;100.00;93733.75;5071046;28;20209;-74
2022/09/28 03:57:36;;;;;;;18.57;9.37;;;;;;;12.70;100.00;93730.34;5070890;28;20749;-74
2022/09/28 04:00:04;;;;;;;17.27;9.30;;;;;;;12.68;100.00;93742.81;5071539;28;20209;-74
2022/09/28 04:02:31;;;;;;;13.10;9.10;;;;;;;12.66;100.00;93729.25;5070771;28;20212;-74
2022/09/28 04:04:58;;;;;;;15.47;10.00;;;;;;;12.68;100.00;93732.38;5069513;28;20216;-74
2022/09/28 04:07:26;;;;;;;16.10;9.33;;;;;;;12.57;100.00;93708.09;5070120;28;20229;-74
2022/09/28 04:09:53;;;;;;;14.33;9.60;;;;;;;12.69;100.00;93723.53;5070501;28;20205;-75
2022/09/28 04:12:20;;;;;;;14.47;9.83;;;;;;;12.72;100.00;93723.03;5070583;28;20236;-81
2022/09/28 04:14:46;;;;;;;17.57;9.73;;;;;;;12.74;100.00;93726.97;5070929;28;20209;-74
2022/09/28 04:17:13;;;;;;;14.93;9.47;;;;;;;12.79;100.00;93732.19;5069762;28;20205;-74
2022/09/28 04:19:40;;;;;;;17.53;9.70;;;;;;;12.88;100.00;93729.88;5070317;28;20228;-73
2022/09/28 04:22:07;;;;;;;18.53;10.40;;;;;;;12.69;100.00;93726.94;5070444;28;20193;-74
2022/09/28 04:24:36;;;;;;;13.20;9.93;;;;;;;12.40;100.00;93736.94;5067440;28;20201;-74
2022/09/28 04:29:43;;;;;;;17.50;11.03;;;;;;;12.19;100.00;93722.19;5068024;28;20204;-74
2022/09/28 04:32:11;;;;;;;18.63;11.30;;;;;;;12.34;100.00;93737.16;5070323;28;20225;-73
2022/09/28 04:34:38;;;;;;;17.80;11.10;;;;;;;12.43;100.00;93733.03;5067623;28;20208;-74
2022/09/28 04:37:05;;;;;;;23.30;11.77;;;;;;;12.57;100.00;93728.16;5067324;28;20595;-74
2022/09/28 04:39:32;;;;;;;19.20;11.77;;;;;;;12.66;100.00;93724.03;5070208;28;20216;-74
2022/09/28 04:42:00;;;;;;;25.03;11.10;;;;;;;12.72;100.00;93721.22;5070224;28;20205;-75
2022/09/28 04:44:27;;;;;;;19.33;10.57;;;;;;;12.80;100.00;93738.19;5071695;28;20209;-81
2022/09/28 04:46:55;;;;;;;20.13;11.00;;;;;;;12.88;100.00;93735.88;5068356;28;20196;-76
2022/09/28 04:49:23;;;;;;;22.90;10.80;;;;;;;12.87;100.00;93730.94;5069747;28;20202;-76
2022/09/28 04:51:50;;;;;;;19.77;10.80;;;;;;;12.86;100.00;93729.34;5069713;28;20240;-75
2022/09/28 04:54:17;;;;;;;19.43;10.13;;;;;;;12.95;100.00;93728.63;5069921;28;20224;-74
2022/09/28 04:56:46;;;;;;;19.37;10.77;;;;;;;12.91;100.00;93729.38;5067606;28;20233;-74
2022/09/28 04:59:14;;;;;;;22.47;12.27;;;;;;;12.92;100.00;93717.91;5066151;28;20631;-74
2022/09/28 05:01:41;;;;;;;32.37;17.93;;;;;;;13.02;100.00;93726.53;5070050;28;20204;-74
2022/09/28 05:04:08;;;;;;;29.87;18.63;;;;;;;13.06;100.00;93732.03;5070201;28;20687;-77
2022/09/28 05:06:35;;;;;;;28.17;20.30;;;;;;;13.13;100.00;93729.25;5069429;28;20237;-77
2022/09/28 05:09:02;;;;;;;33.70;23.23;;;;;;;13.16;100.00;93728.72;5069740;28;20201;-77
2022/09/28 05:11:29;;;;;;;34.77;20.43;;;;;;;13.21;100.00;93729.53;5066146;28;20251;-77
2022/09/28 05:13:55;;;;;;;27.83;19.47;;;;;;;13.21;100.00;93734.75;5069403;28;20620;-77
2022/09/28 05:16:25;;;;;;;29.40;19.13;;;;;;;13.27;100.00;93728.50;5069222;28;20197;-78
2022/09/28 05:18:55;;;;;;;27.90;17.47;;;;;;;13.11;100.00;93716.44;5055454;28;20911;-78
2022/09/28 05:21:24;;;;;;;35.70;19.43;;;;;;;13.30;100.00;93738.44;5064661;28;20287;-78
2022/09/28 05:23:51;;;;;;;36.80;20.73;;;;;;;13.32;100.00;93746.00;5069296;28;20631;-78
2022/09/28 05:26:18;;;;;;;31.30;18.80;;;;;;;13.25;100.00;93738.38;5069011;28;20205;-77
2022/09/28 05:28:44;;;;;;;30.73;18.40;;;;;;;13.22;100.00;93735.53;5069349;28;20201;-77
2022/09/28 05:31:11;;;;;;;23.57;17.47;;;;;;;13.28;100.00;93742.31;5066195;28;20201;-77
2022/09/28 05:33:39;;;;;;;24.70;16.90;;;;;;;13.26;100.00;93750.41;5069046;28;20545;-77
2022/09/28 05:36:09;;;;;;;22.27;16.07;;;;;;;13.22;100.00;93745.97;5068972;28;20869;-77
2022/09/28 05:38:36;;;;;;;29.63;17.63;;;;;;;13.15;100.00;93737.59;5069492;28;20209;-77
2022/09/28 05:41:04;;;;;;;31.23;17.70;;;;;;;13.19;100.00;93738.66;5069082;28;20201;-77
2022/09/28 05:43:32;;;;;;;27.20;17.23;;;;;;;13.28;100.00;93748.31;5068760;28;20637;-77
2022/09/28 05:45:59;;;;;;;27.17;18.30;;;;;;;13.34;100.00;93747.28;5068277;28;20218;-77
2022/09/28 05:48:27;;;;;;;25.07;17.97;;;;;;;13.46;100.00;93742.63;5066921;28;20209;-78
2022/09/28 05:50:57;;;;;;;29.13;17.70;;;;;;;13.49;100.00;93754.38;5067919;28;20573;-77
2022/09/28 05:53:24;;;;;;;32.13;17.63;;;;;;;13.39;100.00;93734.25;5067324;28;20287;-77
2022/09/28 05:55:51;;;;;;;25.23;16.70;;;;;;;13.51;100.00;93731.41;5068851;28;20197;-77
2022/09/28 05:58:18;;;;;;;26.73;17.70;;;;;;;13.54;100.00;93736.91;5066020;28;20214;-76
2022/09/28 06:00:45;;;;;;;24.50;17.67;;;;;;;13.71;100.00;93738.50;5068702;28;20205;-76
2022/09/28 06:03:14;;;;;;;28.83;17.37;;;;;;;13.80;100.00;93740.31;5068252;28;20201;-78
2022/09/28 06:05:41;;;;;;;24.80;17.07;;;;;;;13.82;100.00;93737.47;5067758;28;20240;-76
2022/09/28 06:08:10;;;;;;;28.50;16.53;;;;;;;13.86;100.00;93749.75;5061739;28;20201;-73
2022/09/28 06:10:38;;;;;;;30.63;16.90;;;;;;;13.91;100.00;93756.81;5064464;28;20210;-73
2022/09/28 06:13:05;;;;;;;32.83;17.90;;;;;;;13.93;100.00;93759.94;5064004;28;20225;-74
2022/09/28 06:15:34;;;;;;;28.23;18.37;;;;;;;13.91;100.00;93767.25;5069723;28;20665;-73
2022/09/28 06:18:02;;;;;;;26.37;17.80;;;;;;;13.92;100.00;93766.19;5067812;28;20209;-74
2022/09/28 06:20:32;;;;;;;27.67;16.67;;;;;;;13.96;100.00;93764.66;5066063;28;20205;-73
2022/09/28 06:23:00;;;;;;;28.63;17.10;;;;;;;14.03;100.00;93776.41;5067057;28;20655;-73
2022/09/28 06:25:29;;;;;;;28.90;18.13;;;;;;;14.01;100.00;93768.03;5067265;28;20223;-74
2022/09/28 06:27:57;;;;;;;31.07;18.63;;;;;;;14.09;100.00;93777.19;5067658;28;20216;-74
2022/09/28 06:30:25;;;;;;;28.60;19.30;;;;;;;14.07;100.00;93769.63;5067098;28;20236;-74
2022/09/28 06:32:55;;;;;;;25.60;17.60;;;;;;;14.10;100.00;93768.31;5067553;28;20218;-74
2022/09/28 06:35:22;;;;;;;31.30;18.90;;;;;;;14.16;100.00;93767.28;5067059;28;20201;-74
2022/09/28 06:37:49;;;;;;;31.30;17.83;;;;;;;14.07;100.00;93764.41;5067522;28;20608;-74
2022/09/28 06:40:17;;;;;;;30.37;17.97;;;;;;;14.11;100.00;93767.28;5066899;28;20208;-73
2022/09/28 06:42:54;;;;;;;28.30;16.80;;;;;;;14.11;100.00;93775.88;5067585;28;20197;-73
2022/09/28 06:45:24;;;;;;;28.07;17.13;;;;;;;14.17;100.00;93776.66;5067116;28;20201;-74
2022/09/28 06:47:55;;;;;;;31.23;17.73;;;;;;;14.09;100.00;93777.19;5067166;28;20403;-74
2022/09/28 06:50:22;;;;;;;31.43;18.47;;;;;;;14.24;100.00;93785.03;5066890;28;20606;-74
2022/09/28 06:52:53;;;;;;;28.57;17.90;;;;;;;14.16;100.00;93782.94;5067202;28;20220;-74
2022/09/28 06:55:21;;;;;;;33.37;19.83;;;;;;;13.75;100.00;93779.50;5066832;28;20197;-74
2022/09/28 06:57:58;;;;;;;32.97;19.70;;;;;;;13.47;100.00;93774.75;5067464;28;20208;-74
2022/09/28 07:00:25;;;;;;;33.07;21.23;;;;;;;13.48;100.00;93769.25;5066816;28;20193;-73
2022/09/28 07:02:52;;;;;;;39.13;23.70;;;;;;;13.63;100.00;93777.13;5067541;28;20536;-74
2022/09/28 07:05:26;;;;;;;49.33;30.50;;;;;;;13.86;100.00;93785.50;5066698;28;20240;-74
2022/09/28 07:07:55;;;;;;;54.63;31.80;;;;;;;14.03;100.00;93780.84;5066955;28;20770;-74
2022/09/28 07:10:23;;;;;;;50.43;31.50;;;;;;;14.10;100.00;93782.16;5066172;28;20236;-74
2022/09/28 07:12:52;;;;;;;52.87;32.00;;;;;;;14.34;100.00;93782.47;5066961;28;20221;-73
2022/09/28 07:15:20;;;;;;;59.07;32.97;;;;;;;14.45;100.00;93786.63;5067008;28;20223;-77
2022/09/28 07:17:47;;;;;;;57.37;33.33;;;;;;;14.52;100.00;93805.44;5069225;28;20205;-83
2022/09/28 07:20:14;;;;;;;52.03;32.33;;;;;;;14.54;100.00;93795.53;5069167;28;20216;-84
2022/09/28 07:22:44;;;;;;;50.57;31.60;;;;;;;14.62;100.00;93796.81;5070376;28;20198;-84
2022/09/28 07:25:11;;;;;;;54.80;29.17;;;;;;;14.70;100.00;93804.13;5073483;28;20285;-84
2022/09/28 07:27:38;;;;;;;44.47;25.87;;;;;;;14.65;100.00;93794.47;5072605;28;20209;-82
2022/09/28 07:30:07;;;;;;;51.30;30.17;;;;;;;14.72;100.00;93794.97;5073222;28;20293;-83
2022/09/28 07:32:36;;;;;;;50.67;30.60;;;;;;;14.83;100.00;93793.13;5070711;28;20236;-81
2022/09/28 07:35:07;;;;;;;48.43;28.30;;;;;;;14.98;100.00;93800.91;5073184;28;20579;-82
2022/09/28 07:37:34;;;;;;;49.50;28.40;;;;;;;15.03;100.00;93802.75;5073373;28;20686;-82
2022/09/28 07:42:46;;;;;;;39.37;24.97;;;;;;;15.12;100.00;93799.31;5073080;28;20778;-83
2022/09/28 07:45:15;;;;;;;43.93;25.83;;;;;;;15.28;100.00;93795.59;5072812;28;20208;-83
2022/09/28 07:47:42;;;;;;;47.73;24.50;;;;;;;15.37;100.00;93800.28;5073288;28;20205;-82
2022/09/28 07:50:09;;;;;;;40.27;24.20;;;;;;;15.43;100.00;93789.53;5073053;28;20205;-82
2022/09/28 07:52:36;;;;;;;30.93;19.13;;;;;;;15.46;100.00;93796.84;5069703;28;20777;-83
2022/09/28 07:55:04;;;;;;;31.40;18.03;;;;;;;15.57;100.00;93798.38;5073242;28;20202;-82
2022/09/28 07:57:32;;;;;;;28.83;18.23;;;;;;;15.51;100.00;93789.00;5071122;28;20305;-84
2022/09/28 08:00:01;;;;;;;27.43;16.20;;;;;;;15.68;100.00;93806.97;5073105;28;20221;-82
2022/09/28 08:02:31;;;;;;;19.70;14.70;;;;;;;15.66;100.00;93783.69;5072018;28;20213;-83
2022/09/28 08:04:58;;;;;;;21.43;14.83;;;;;;;15.74;100.00;93813.75;5071188;28;20209;-83
2022/09/28 08:07:25;;;;;;;24.67;13.17;;;;;;;15.75;100.00;93799.63;5069348;28;20230;-83
2022/09/28 08:09:52;;;;;;;21.67;13.57;;;;;;;15.70;100.00;93794.41;5072731;28;20205;-83
2022/09/28 08:12:20;;;;;;;27.77;13.80;;;;;;;15.82;100.00;93800.06;5070160;28;20213;-82
2022/09/28 08:14:47;;;;;;;22.17;14.50;;;;;;;15.99;100.00;93799.75;5072794;28;20197;-83
2022/09/28 08:17:14;;;;;;;22.93;13.30;;;;;;;16.01;100.00;93795.00;5072359;28;20243;-79
2022/09/28 08:22:26;;;;;;;18.80;12.43;;;;;;;16.19;100.00;93802.22;5069504;28;20375;-77
2022/09/28 08:24:53;;;;;;;23.03;12.20;;;;;;;16.12;100.00;93807.78;5071149;28;20193;-77
2022/09/28 08:27:20;;;;;;;17.90;12.63;;;;;;;15.93;100.00;93803.44;5071072;28;20209;-80
2022/09/28 08:29:47;;;;;;;22.43;13.10;;;;;;;15.80;100.00;93808.22;5071027;28;20222;-78
2022/09/28 08:32:15;;;;;;;25.87;13.77;;;;;;;15.70;100.00;93810.88;5070633;28;20240;-79
2022/09/28 08:34:44;;;;;;;28.20;13.23;;;;;;;15.88;100.00;93819.97;5069046;28;20202;-80
2022/09/28 08:37:11;;;;;;;27.03;13.57;;;;;;;16.10;100.00;93814.34;5069424;28;20206;-79
2022/09/28 08:39:38;;;;;;;23.00;12.87;;;;;;;16.36;100.00;93813.13;5070698;28;20208;-79
2022/09/28 08:42:22;;;;;;;27.97;15.37;;;;;;;16.61;100.00;93807.69;5066971;28;20221;-80
2022/09/28 08:44:56;;;;;;;21.53;10.80;;;;;;;16.71;100.00;93802.34;5070522;28;20201;-81
2022/09/28 08:50:21;;;;;;;20.33;10.40;;;;;;;17.21;100.00;93802.88;5067760;28;20328;-80
2022/09/28 08:52:54;;;;;;;21.67;10.00;;;;;;;17.42;100.00;93791.88;5070439;28;20205;-79
2022/09/28 08:55:28;;;;;;;19.27;9.17;;;;;;;17.64;100.00;93793.22;5069688;28;20208;-80
2022/09/28 08:58:01;;;;;;;20.37;9.13;;;;;;;17.99;100.00;93800.63;5070036;28;20258;-79
2022/09/28 09:00:35;;;;;;;20.40;9.33;;;;;;;18.28;100.00;93811.00;5070019;28;20202;-80
2022/09/28 09:03:06;;;;;;;19.43;9.03;;;;;;;18.61;100.00;93802.09;5070109;28;20207;-80
2022/09/28 09:05:52;;;;;;;19.27;9.93;;;;;;;18.98;100.00;93801.19;5070268;28;20686;-81
2022/09/28 09:08:32;;;;;;;17.33;10.57;;;;;;;19.27;100.00;93791.97;5067987;28;20225;-79
2022/09/28 09:11:09;;;;;;;19.98;10.02;;;;;;;19.58;100.00;93792.16;5069957;28;21237;-81
2022/09/28 09:14:01;;;;;;;23.42;9.15;;;;;;;19.91;100.00;93795.47;5069353;28;20224;-79
2022/09/28 09:16:35;;;;;;;19.20;9.98;;;;;;;20.19;100.00;93793.50;5068319;28;20202;-80
2022/09/28 09:19:13;;;;;;;22.45;10.82;;;;;;;20.49;99.34;93798.09;5069966;28;20200;-79
2022/09/28 09:21:49;;;;;;;25.52;11.55;;;;;;;20.84;99.37;93788.53;5074617;28;20201;-79
2022/09/28 09:24:25;;;;;;;22.73;9.90;;;;;;;21.13;97.77;93775.66;5069891;28;20214;-79
2022/09/28 09:27:02;;;;;;;22.15;8.77;;;;;;;21.41;94.16;93797.41;5072024;28;20197;-78
2022/09/28 09:29:42;;;;;;;28.10;13.30;;;;;;;21.57;91.94;93801.19;5069786;28;20223;-78
2022/09/28 09:32:23;;;;;;;22.05;8.77;;;;;;;21.13;92.14;93788.88;5072067;28;20208;-78
2022/09/28 09:35:08;;;;;;;18.60;10.43;;;;;;;20.67;96.85;93785.81;5072035;28;20212;-79
2022/09/28 09:37:52;;;;;;;23.58;8.20;;;;;;;20.78;95.27;93792.38;5071992;28;20266;-79
2022/09/28 09:40:33;;;;;;;17.20;7.88;;;;;;;21.20;95.89;93783.94;5072328;28;20202;-78
2022/09/28 09:43:26;;;;;;;15.82;7.85;;;;;;;21.50;94.06;93784.97;5072429;28;20197;-79
2022/09/28 09:46:06;;;;;;;15.18;7.53;;;;;;;22.02;93.42;93785.88;5071312;28;20198;-78
2022/09/28 09:48:39;;;;;;;16.35;7.55;;;;;;;22.58;92.73;93788.38;5072102;28;20197;-79
2022/09/28 09:51:17;;;;;;;16.85;7.70;;;;;;;23.12;93.91;93786.09;5071934;28;20210;-80
2022/09/28 09:53:51;;;;;;;28.33;8.43;;;;;;;23.26;86.44;93770.75;5069091;28;20221;-80
2022/09/28 09:56:27;;;;;;;12.73;7.15;;;;;;;23.66;83.90;93781.88;5069487;28;21147;-80
2022/09/28 09:58:59;;;;;;;13.63;6.90;;;;;;;23.93;84.21;93788.56;5068748;28;20192;-78
2022/09/28 10:01:33;;;;;;;21.30;7.10;;;;;;;24.03;80.13;93791.63;5065046;28;20675;-79
2022/09/28 10:04:02;;;;;;;11.32;5.47;;;;;;;24.20;78.90;93782.78;5067985;28;20635;-80
2022/09/28 10:06:34;;;;;;;20.75;6.18;;;;;;;24.35;78.07;93795.50;5068260;28;20321;-80
2022/09/28 10:12:25;;;;;;;37.60;15.82;;;;;;;25.03;78.89;93793.31;5054297;28;20239;-79
2022/09/28 10:14:54;;;;;;;20.60;8.82;;;;;;;25.18;75.23;93787.38;5065652;28;20618;-79
2022/09/28 10:17:26;;;;;;;14.82;6.80;;;;;;;25.53;80.85;93772.59;5069766;28;20232;-81
2022/09/28 10:19:55;;;;;;;97.60;37.92;;;;;;;25.91;75.42;93756.25;5065477;28;20232;-79
2022/09/28 10:22:26;;;;;;;138.50;61.50;;;;;;;26.33;75.55;93778.84;5052446;28;20662;-78
2022/09/28 10:24:56;;;;;;;50.58;21.83;;;;;;;26.72;71.95;93782.59;5065025;28;20197;-80
2022/09/28 10:27:29;;;;;;;9.18;4.93;;;;;;;26.87;65.79;93787.19;5065063;28;20193;-80
2022/09/28 10:30:00;;;;;;;13.98;4.90;;;;;;;27.19;67.74;93787.25;5065405;28;20229;-78
2022/09/28 10:32:36;;;;;;;7.80;4.32;;;;;;;27.57;68.17;93787.47;5067777;28;20284;-81
2022/09/28 10:35:20;;;;;;;11.65;4.57;;;;;;;28.02;66.75;93774.38;5067538;28;20201;-79
2022/09/28 10:37:54;;;;;;;7.20;3.78;;;;;;;27.74;60.74;93776.44;5068418;28;20247;-79
2022/09/28 10:40:33;;;;;;;10.50;4.15;;;;;;;28.12;61.84;93770.44;5068346;28;20622;-79
2022/09/28 10:43:03;;;;;;;11.20;3.78;;;;;;;28.36;61.66;93762.19;5067902;28;20204;-80
2022/09/28 10:45:35;;;;;;;9.13;3.35;;;;;;;28.75;61.28;93768.31;5068545;28;20201;-78
2022/09/28 10:48:06;;;;;;;6.25;2.80;;;;;;;28.68;56.45;93765.50;5068048;28;20205;-79
2022/09/28 10:50:34;;;;;;;4.43;2.80;;;;;;;28.77;54.67;93755.38;5068166;28;20220;-78
2022/09/28 10:53:12;;;;;;;6.18;3.03;;;;;;;29.04;53.08;93759.69;5067657;28;20280;-78
2022/09/28 10:55:39;;;;;;;11.43;3.42;;;;;;;29.05;53.76;93763.13;5067821;28;20686;-77
2022/09/28 10:58:26;;;;;;;9.80;3.40;;;;;;;29.11;52.18;93756.38;5067283;28;20197;-78
2022/09/28 11:01:01;;;;;;;6.72;2.40;;;;;;;28.94;48.79;93752.25;5068118;28;20622;-77
2022/09/28 11:03:29;;;;;;;4.70;2.05;;;;;;;29.10;45.66;93747.56;5067835;28;20216;-78
2022/09/28 11:05:59;;;;;;;6.20;2.42;;;;;;;28.64;45.14;93743.25;5067443;28;20240;-77
2022/09/28 11:08:31;;;;;;;6.38;3.28;;;;;;;28.39;46.44;93750.00;5054873;28;20209;-77
2022/09/28 11:11:03;;;;;;;6.85;2.97;;;;;;;28.38;47.34;93735.84;5064914;28;20236;-79
2022/09/28 11:13:38;;;;;;;8.80;3.90;;;;;;;28.51;49.28;93737.28;5066822;28;20233;-76
2022/09/28 11:16:05;;;;;;;9.75;3.55;;;;;;;28.68;46.26;93744.13;5066715;28;20301;-77
2022/09/28 11:18:33;;;;;;;6.20;3.20;;;;;;;28.78;46.30;93730.16;5066747;28;20205;-76
2022/09/28 11:21:10;;;;;;;6.30;2.65;;;;;;;28.87;46.21;93736.06;5066610;28;20225;-77
2022/09/28 11:23:37;;;;;;;6.28;2.83;;;;;;;29.17;46.41;93741.56;5063079;28;20219;-77
2022/09/28 11:26:06;;;;;;;6.80;2.45;;;;;;;29.24;45.27;93731.75;5062372;28;20209;-81
2022/09/28 11:28:37;;;;;;;4.88;2.63;;;;;;;29.42;47.18;93725.91;5067053;28;20204;-77
2022/09/28 11:31:06;;;;;;;8.40;2.67;;;;;;;29.00;44.33;93728.63;5065955;28;20201;-77
2022/09/28 11:33:36;;;;;;;10.77;2.88;;;;;;;28.73;46.25;93714.38;5066128;28;20225;-80
2022/09/28 11:36:20;;;;;;;9.82;2.60;;;;;;;29.12;46.61;93704.38;5064962;28;20301;-80
2022/09/28 11:39:00;;;;;;;4.35;2.20;;;;;;;29.31;44.02;93714.25;5066988;28;20619;-78
2022/09/28 11:41:54;;;;;;;5.82;2.40;;;;;;;28.99;44.37;93719.06;5064508;28;20208;-76
2022/09/28 11:44:37;;;;;;;6.25;2.28;;;;;;;27.93;44.08;93724.97;5067774;28;20209;-77